Time;durP1;ratioP1;P1;durP2;ratioP2;P2;SDS_P1;SDS_P2;PMS_P1;PMS_P2;Temp;Humidity;BMP_temperature;BMP_pressure;BME280_temperature;BME280_humidity;BME280_pressure;Samples;Min_cycle;Max_cycle;Signal;HPM_P1;HPM_P2
2022/09/26 00:01:43;;;;;;;9.00;2.67;;;;;;;14.63;57.60;100866.59;5180519;28;20060;-46
2022/09/26 00:04:20;;;;;;;7.63;2.80;;;;;;;14.64;57.46;100862.94;5170693;28;20068;-51
2022/09/26 00:06:55;;;;;;;7.90;2.30;;;;;;;14.64;57.45;100850.47;5174302;28;20049;-48
2022/09/26 00:09:29;;;;;;;11.23;2.65;;;;;;;14.65;57.46;100844.16;5172950;28;20041;-49
2022/09/26 00:12:03;;;;;;;5.80;2.35;;;;;;;14.63;57.32;100843.50;5178242;28;20040;-51
2022/09/26 00:14:35;;;;;;;6.43;2.53;;;;;;;14.64;57.53;100837.19;5176643;28;20107;-50
2022/09/26 00:17:07;;;;;;;9.10;2.78;;;;;;;14.62;57.44;100825.91;5170996;28;20377;-49
2022/09/26 00:20:37;;;;;;;4.65;2.30;;;;;;;14.65;57.49;100817.59;5169830;28;20049;-49
2022/09/26 00:23:09;;;;;;;7.28;2.88;;;;;;;14.65;57.39;100811.44;5159972;28;20041;-45
2022/09/26 00:25:47;;;;;;;14.07;2.67;;;;;;;14.64;57.84;100807.13;5165174;28;20049;-50
2022/09/26 00:28:19;;;;;;;6.75;2.42;;;;;;;14.57;57.65;100793.72;5169220;28;20465;-49
2022/09/26 00:30:52;;;;;;;8.65;2.53;;;;;;;14.65;57.59;100790.19;5172110;28;20378;-49
2022/09/26 00:33:24;;;;;;;12.43;3.27;;;;;;;14.64;57.40;100783.19;5168096;28;20045;-47
2022/09/26 00:35:57;;;;;;;6.43;2.80;;;;;;;14.66;57.45;100787.34;5177380;28;20510;-47
2022/09/26 00:38:29;;;;;;;10.57;3.17;;;;;;;14.66;57.52;100779.34;5170068;28;20477;-50
2022/09/26 00:41:04;;;;;;;9.73;2.75;;;;;;;14.67;57.54;100773.03;5184086;28;20500;-49
2022/09/26 00:43:40;;;;;;;9.95;2.70;;;;;;;14.69;57.33;100760.41;5173069;28;20517;-50
2022/09/26 00:46:25;;;;;;;6.35;2.35;;;;;;;14.70;57.52;100759.38;5173100;28;20071;-47
2022/09/26 00:49:12;;;;;;;5.25;2.00;;;;;;;14.52;57.51;100721.66;5171380;28;20373;-47
2022/09/26 00:51:50;;;;;;;9.20;2.50;;;;;;;14.71;57.58;100738.94;5172512;28;20052;-50
2022/09/26 00:54:23;;;;;;;11.27;2.75;;;;;;;14.70;57.37;100740.78;5173198;28;20049;-49
2022/09/26 00:57:03;;;;;;;7.15;3.13;;;;;;;14.68;57.43;100720.69;5169064;28;20474;-51
2022/09/26 00:59:39;;;;;;;9.55;2.60;;;;;;;14.70;57.57;100722.16;5172520;28;20049;-48
2022/09/26 01:02:12;;;;;;;8.65;2.45;;;;;;;14.72;57.21;100709.53;5177422;28;20049;-50
2022/09/26 01:04:46;;;;;;;14.00;3.92;;;;;;;14.75;57.27;100711.84;5169444;28;20142;-50
2022/09/26 01:07:21;;;;;;;10.10;3.03;;;;;;;14.78;57.25;100701.84;5167904;28;20575;-48
2022/09/26 01:09:54;;;;;;;6.90;2.95;;;;;;;14.80;57.24;100697.97;5169042;28;20373;-46
2022/09/26 01:12:29;;;;;;;7.95;2.20;;;;;;;14.81;57.23;100682.88;5170314;28;20208;-47
2022/09/26 01:15:02;;;;;;;11.98;2.83;;;;;;;14.80;57.37;100674.06;5179680;28;20405;-46
2022/09/26 01:17:34;;;;;;;;;;;;;;;14.82;57.22;100674.72;5188167;28;20049;-51
2022/09/26 01:20:20;;;;;;;5.50;1.98;;;;;;;14.63;57.42;100643.34;5165979;28;22105;-48
2022/09/26 01:23:56;;;;;;;8.10;2.30;;;;;;;14.80;57.44;100665.25;5174845;28;20045;-47
2022/09/26 01:26:58;;;;;;;7.22;2.20;;;;;;;14.75;57.69;100661.31;5145931;28;20049;-44
2022/09/26 01:30:08;;;;;;;7.63;2.17;;;;;;;14.75;57.46;100649.88;5165130;28;20055;-47
2022/09/26 01:33:14;;;;;;;4.13;1.95;;;;;;;14.73;57.50;100650.03;5175727;28;20037;-48
2022/09/26 01:36:14;;;;;;;3.60;2.35;;;;;;;14.72;57.45;100644.91;5162182;28;20132;-51
2022/09/26 01:39:02;;;;;;;6.85;2.00;;;;;;;14.68;57.51;100630.31;5174424;28;20055;-48
2022/09/26 01:41:50;;;;;;;2.85;1.80;;;;;;;14.61;57.71;100614.28;5156561;28;20470;-48
2022/09/26 01:44:31;;;;;;;5.47;2.15;;;;;;;14.62;57.84;100600.00;5177865;28;20041;-48
2022/09/26 01:47:13;;;;;;;5.65;2.28;;;;;;;14.61;57.93;100614.28;5168060;28;20367;-50
2022/09/26 01:49:54;;;;;;;9.63;2.67;;;;;;;14.59;57.86;100610.16;5175284;28;21880;-49
2022/09/26 01:52:36;;;;;;;5.28;2.35;;;;;;;14.59;57.97;100610.16;5164537;28;20465;-48
2022/09/26 01:55:12;;;;;;;6.43;2.17;;;;;;;14.58;57.96;100593.38;5176654;28;20449;-52
2022/09/26 01:57:52;;;;;;;6.43;2.40;;;;;;;14.56;58.00;100595.41;5175878;28;20054;-49
2022/09/26 02:00:24;;;;;;;4.20;2.08;;;;;;;14.49;58.06;100573.16;5175424;28;20041;-48
2022/09/26 02:03:00;;;;;;;8.77;3.00;;;;;;;14.57;58.15;100581.09;5168918;28;20469;-47
2022/09/26 02:05:38;;;;;;;2.10;1.83;;;;;;;14.57;58.02;100574.97;5178040;28;20369;-50
2022/09/26 02:08:16;;;;;;;5.07;2.80;;;;;;;14.55;58.38;100569.00;5171254;28;20509;-51
2022/09/26 02:10:52;;;;;;;7.10;2.20;;;;;;;14.51;58.35;100571.19;5182108;28;20060;-48
2022/09/26 02:13:31;;;;;;;7.88;2.58;;;;;;;14.45;58.37;100548.81;5174907;28;20779;-51
2022/09/26 02:16:10;;;;;;;7.30;2.90;;;;;;;14.54;58.36;100565.53;5181445;28;20048;-52
2022/09/26 02:18:50;;;;;;;3.58;3.00;;;;;;;14.53;58.60;100547.94;5169102;28;20478;-47
2022/09/26 02:21:24;;;;;;;5.43;2.42;;;;;;;14.52;58.61;100546.25;5181557;28;20041;-48
2022/09/26 02:23:56;;;;;;;8.63;2.38;;;;;;;14.49;58.54;100535.97;5167320;28;20041;-51
2022/09/26 02:26:29;;;;;;;8.77;2.33;;;;;;;14.45;58.67;100529.38;5170662;28;20049;-50
2022/09/26 02:29:02;;;;;;;4.07;2.08;;;;;;;14.51;58.77;100534.00;5174055;28;20068;-48
2022/09/26 02:31:40;;;;;;;6.80;2.70;;;;;;;14.51;58.66;100523.38;5175916;28;20047;-47
2022/09/26 02:34:14;;;;;;;11.43;3.17;;;;;;;14.48;58.70;100518.38;5170213;28;20075;-48
2022/09/26 02:36:46;;;;;;;7.68;2.63;;;;;;;14.50;58.72;100516.38;5169237;28;20382;-51
2022/09/26 02:39:18;;;;;;;4.85;3.15;;;;;;;14.51;58.68;100512.75;5177332;28;20037;-48
2022/09/26 02:42:00;;;;;;;11.63;2.87;;;;;;;14.49;58.81;100501.44;5172798;28;20466;-48
2022/09/26 02:44:50;;;;;;;6.90;3.33;;;;;;;14.49;58.91;100501.44;5180161;28;20055;-44
2022/09/26 02:47:51;;;;;;;13.35;3.33;;;;;;;14.47;59.13;100492.84;5177253;28;20674;-49
2022/09/26 02:50:46;;;;;;;5.20;2.03;;;;;;;14.49;59.07;100488.13;5171871;28;20173;-50
2022/09/26 02:53:35;;;;;;;8.50;3.83;;;;;;;14.46;59.09;100478.72;5174104;28;20049;-50
2022/09/26 02:56:16;;;;;;;6.10;2.83;;;;;;;14.50;58.74;100473.88;5170744;28;20179;-48
2022/09/26 02:58:58;;;;;;;4.57;2.40;;;;;;;14.51;59.17;100470.22;5176965;28;20377;-48
2022/09/26 03:01:39;;;;;;;7.60;2.90;;;;;;;14.49;59.52;100461.56;5164365;28;20447;-48
2022/09/26 03:13:56;;;;;;;6.97;2.60;;;;;;;14.47;59.27;100429.88;5181253;28;20473;-49
2022/09/26 03:16:34;;;;;;;11.57;3.22;;;;;;;14.46;59.24;100424.75;5182781;28;20449;-48
2022/09/26 03:19:11;;;;;;;9.45;3.28;;;;;;;14.39;59.47;100410.56;5186980;28;20071;-49
2022/09/26 03:21:44;;;;;;;10.07;2.75;;;;;;;14.44;59.12;100410.84;5182518;28;20108;-47
2022/09/26 03:24:16;;;;;;;6.30;2.88;;;;;;;14.46;59.15;100403.47;5188670;28;20048;-47
2022/09/26 03:26:50;;;;;;;11.65;2.70;;;;;;;14.45;59.19;100404.50;5187804;28;20072;-51
2022/09/26 03:29:24;;;;;;;7.85;2.63;;;;;;;14.43;59.09;100395.88;5186547;28;20426;-48
2022/09/26 03:31:56;;;;;;;6.38;2.40;;;;;;;14.43;59.06;100393.22;5183777;28;20041;-49
2022/09/26 03:34:29;;;;;;;5.68;2.40;;;;;;;14.43;59.07;100385.25;5179255;28;20131;-49
2022/09/26 03:37:20;;;;;;;4.05;2.30;;;;;;;14.26;59.07;100358.91;5188836;28;20052;-50
2022/09/26 03:39:53;;;;;;;4.82;2.40;;;;;;;14.45;58.86;100369.97;5187750;28;20041;-52
2022/09/26 03:42:25;;;;;;;6.70;2.88;;;;;;;14.46;58.97;100371.59;5183462;28;20045;-39
2022/09/26 03:44:59;;;;;;;5.20;2.47;;;;;;;14.46;58.99;100363.63;5186416;28;20607;-52
2022/09/26 03:47:31;;;;;;;8.88;2.72;;;;;;;14.44;58.90;100355.03;5180031;28;20044;-44
2022/09/26 03:50:05;;;;;;;5.25;2.35;;;;;;;14.44;58.85;100352.38;5180067;28;20459;-51
2022/09/26 03:52:37;;;;;;;9.23;2.42;;;;;;;14.44;58.95;100347.06;5187318;28;20449;-51
2022/09/26 03:55:10;;;;;;;12.52;2.40;;;;;;;14.42;58.98;100346.44;5184021;28;20179;-48
2022/09/26 03:57:42;;;;;;;5.93;3.10;;;;;;;14.39;58.76;100329.03;5182292;28;20040;-49
2022/09/26 04:00:16;;;;;;;7.30;2.47;;;;;;;14.40;58.92;100329.84;5185079;28;20268;-52
2022/09/26 04:02:48;;;;;;;8.18;2.30;;;;;;;14.41;58.75;100320.88;5180466;28;20349;-50
2022/09/26 04:05:21;;;;;;;9.90;3.00;;;;;;;14.36;58.70;100308.13;5187815;28;20048;-48
2022/09/26 04:07:53;;;;;;;7.95;2.72;;;;;;;14.35;58.77;100316.31;5186037;28;20226;-49
2022/09/26 04:10:26;;;;;;;7.60;2.20;;;;;;;14.33;58.68;100300.53;5184847;28;20445;-41
2022/09/26 04:12:58;;;;;;;8.00;3.10;;;;;;;14.32;58.76;100298.09;5183100;28;20270;-47
2022/09/26 04:15:32;;;;;;;11.50;3.28;;;;;;;14.27;58.71;100294.13;5187919;28;20044;-49
2022/09/26 04:18:04;;;;;;;4.55;2.72;;;;;;;14.23;59.04;100292.88;5184667;28;20059;-50
2022/09/26 04:20:37;;;;;;;8.07;2.63;;;;;;;14.19;58.87;100281.00;5189152;28;20441;-51
2022/09/26 04:23:09;;;;;;;8.20;3.40;;;;;;;14.15;59.11;100285.00;5187552;28;20137;-51
2022/09/26 04:25:41;;;;;;;11.73;3.08;;;;;;;14.11;59.24;100273.13;5184915;28;20052;-52
2022/09/26 04:28:14;;;;;;;7.05;2.38;;;;;;;14.07;59.10;100271.88;5183164;28;20354;-51
2022/09/26 04:30:48;;;;;;;6.80;2.43;;;;;;;14.00;59.14;100245.25;5184992;28;20393;-48
2022/09/26 04:33:20;;;;;;;11.27;3.03;;;;;;;14.04;59.31;100251.00;5187625;28;20500;-48
2022/09/26 04:35:54;;;;;;;8.80;2.70;;;;;;;14.05;59.17;100252.63;5182386;28;20443;-51
2022/09/26 04:38:32;;;;;;;10.73;3.30;;;;;;;14.04;59.20;100246.50;5183096;28;20534;-52
2022/09/26 04:41:05;;;;;;;16.48;3.40;;;;;;;14.04;59.21;100235.88;5185723;28;20045;-51
2022/09/26 04:43:38;;;;;;;9.85;2.80;;;;;;;14.03;59.34;100239.56;5180895;28;20099;-50
2022/09/26 04:46:15;;;;;;;7.43;4.03;;;;;;;14.03;59.26;100217.50;5180708;28;20214;-51
2022/09/26 04:48:48;;;;;;;9.73;2.70;;;;;;;14.03;59.08;100217.50;5184994;28;20566;-52
2022/09/26 04:51:23;;;;;;;11.32;3.70;;;;;;;14.01;59.24;100224.81;5184325;28;20369;-49
2022/09/26 04:53:56;;;;;;;6.18;2.13;;;;;;;14.00;59.19;100212.56;5186228;28;20452;-49
2022/09/26 04:56:30;;;;;;;11.27;3.30;;;;;;;13.99;59.23;100203.75;5185981;28;20055;-51
2022/09/26 04:59:02;;;;;;;7.65;3.67;;;;;;;13.97;59.28;100204.97;5184150;28;20044;-47
2022/09/26 05:01:36;;;;;;;4.38;2.95;;;;;;;13.95;59.20;100189.22;5187028;28;20124;-48
2022/09/26 05:04:08;;;;;;;3.70;2.78;;;;;;;13.94;59.24;100181.47;5180824;28;20132;-50
2022/09/26 05:06:41;;;;;;;4.50;2.45;;;;;;;13.93;59.25;100182.44;5182413;28;20377;-53
2022/09/26 05:09:13;;;;;;;3.90;2.55;;;;;;;13.91;59.30;100165.91;5183380;28;20063;-49
2022/09/26 05:11:45;;;;;;;5.10;2.85;;;;;;;13.89;59.29;100162.59;5179767;28;20136;-48
2022/09/26 05:14:18;;;;;;;9.05;3.83;;;;;;;13.86;59.26;100158.50;5184033;28;20146;-52
2022/09/26 05:16:51;;;;;;;11.45;3.60;;;;;;;13.65;59.30;100118.66;5183024;28;20544;-49
2022/09/26 05:19:25;;;;;;;7.93;3.25;;;;;;;13.87;59.40;100148.69;5183919;28;20426;-48
2022/09/26 05:21:57;;;;;;;6.22;2.95;;;;;;;13.61;59.35;100096.97;5181750;28;20431;-48
2022/09/26 05:27:20;;;;;;;4.45;2.47;;;;;;;13.87;59.28;100132.75;5185860;28;20063;-51
2022/09/26 05:29:55;;;;;;;7.97;3.00;;;;;;;13.87;59.38;100116.84;5184970;28;20067;-51
2022/09/26 05:32:29;;;;;;;9.57;3.05;;;;;;;13.86;59.30;100113.38;5184494;28;20155;-47
2022/09/26 05:35:04;;;;;;;5.55;3.20;;;;;;;13.86;59.42;100107.25;5187934;28;20373;-51
2022/09/26 05:37:36;;;;;;;9.52;3.60;;;;;;;13.86;59.29;100099.28;5187938;28;20407;-51
2022/09/26 05:43:01;;;;;;;6.90;2.97;;;;;;;13.80;59.45;100085.75;5180573;28;20544;-51
2022/09/26 05:45:35;;;;;;;7.82;3.47;;;;;;;13.83;59.61;100095.97;5189139;28;20459;-51
2022/09/26 05:48:08;;;;;;;5.72;2.92;;;;;;;13.84;59.49;100092.34;5190342;28;20044;-51
2022/09/26 05:50:42;;;;;;;7.35;3.65;;;;;;;13.87;59.51;100087.63;5193076;28;20445;-52
2022/09/26 05:53:14;;;;;;;6.38;2.90;;;;;;;13.89;59.57;100077.66;5188056;28;20045;-48
2022/09/26 05:55:50;;;;;;;6.93;3.25;;;;;;;13.86;59.51;100078.03;5188675;28;20041;-47
2022/09/26 05:58:22;;;;;;;12.65;3.00;;;;;;;13.91;59.66;100080.97;5179650;28;20354;-49
2022/09/26 06:00:54;;;;;;;10.10;3.17;;;;;;;13.94;59.53;100072.63;5181874;28;20037;-48
2022/09/26 06:03:32;;;;;;;4.60;2.40;;;;;;;13.90;59.45;100069.50;5176698;28;20047;-51
2022/09/26 06:06:07;;;;;;;7.60;2.50;;;;;;;13.97;59.55;100064.28;5177821;28;20334;-49
2022/09/26 06:08:41;;;;;;;10.60;3.47;;;;;;;13.95;59.57;100045.03;5195737;28;20368;-50
2022/09/26 06:11:16;;;;;;;7.72;2.95;;;;;;;13.96;59.61;100054.66;5184125;28;20124;-51
2022/09/26 06:13:49;;;;;;;7.45;3.47;;;;;;;13.96;59.48;100062.59;5195278;28;20376;-48
2022/09/26 06:16:22;;;;;;;7.30;2.60;;;;;;;14.02;59.44;100051.22;5192072;28;20383;-51
2022/09/26 06:18:56;;;;;;;7.00;2.75;;;;;;;13.92;59.59;100037.47;5173858;28;20041;-49
2022/09/26 06:21:28;;;;;;;12.40;3.17;;;;;;;14.04;59.34;100054.53;5186840;28;20041;-49
2022/09/26 06:24:01;;;;;;;5.85;2.33;;;;;;;14.04;59.43;100054.53;5189118;28;20048;-51
2022/09/26 06:26:34;;;;;;;8.63;2.97;;;;;;;14.05;59.44;100051.66;5188666;28;20057;-48
2022/09/26 06:29:06;;;;;;;;;;;;;;;14.05;59.42;100040.22;5182305;28;20411;-47
2022/09/26 06:31:39;;;;;;;9.05;3.58;;;;;;;13.56;59.59;99964.06;5193579;28;20353;-48
2022/09/26 06:34:14;;;;;;;7.25;2.53;;;;;;;14.03;59.68;100039.63;5195466;28;20143;-48
2022/09/26 06:36:46;;;;;;;10.00;2.72;;;;;;;14.03;59.67;100032.47;5180557;28;20056;-50
2022/09/26 06:39:19;;;;;;;8.55;4.07;;;;;;;14.00;59.55;100026.72;5184589;28;20045;-50
2022/09/26 06:41:52;;;;;;;11.00;3.47;;;;;;;13.99;59.78;100017.09;5191112;28;20436;-54
2022/09/26 06:44:24;;;;;;;;;;;;;;;13.98;59.80;100015.47;5195764;28;20449;-48
2022/09/26 06:46:59;;;;;;;9.13;3.63;;;;;;;13.96;59.77;100004.22;5187490;28;20359;-45
2022/09/26 06:49:33;;;;;;;6.78;3.55;;;;;;;13.97;59.72;100000.56;5196180;28;20449;-47
2022/09/26 06:52:06;;;;;;;9.57;2.60;;;;;;;13.98;59.83;99997.69;5192668;28;20052;-47
2022/09/26 06:54:38;;;;;;;6.43;2.38;;;;;;;13.99;59.93;99987.91;5185364;28;20048;-51
2022/09/26 06:57:13;;;;;;;10.33;3.70;;;;;;;14.01;59.92;99980.56;5194400;28;20653;-50
2022/09/26 06:59:45;;;;;;;5.40;2.55;;;;;;;14.04;59.88;99974.88;5180860;28;20599;-51
2022/09/26 07:02:18;;;;;;;8.15;2.65;;;;;;;14.00;59.91;99973.63;5194846;28;20551;-49
2022/09/26 07:04:52;;;;;;;9.50;2.65;;;;;;;14.07;59.80;99969.19;5195256;28;20524;-48
2022/09/26 07:07:24;;;;;;;15.25;4.45;;;;;;;14.07;59.82;99964.69;5193830;28;20086;-48
2022/09/26 07:09:56;;;;;;;12.88;3.17;;;;;;;14.10;59.60;99952.03;5192184;28;20051;-51
2022/09/26 07:12:29;;;;;;;16.65;3.55;;;;;;;14.08;59.53;99949.56;5193434;28;20060;-48
2022/09/26 07:15:02;;;;;;;10.38;3.20;;;;;;;14.08;59.67;99949.56;5193509;28;20048;-51
2022/09/26 07:17:35;;;;;;;;;;;;;;;14.06;59.61;99941.81;5186845;28;20041;-52
2022/09/26 07:20:10;;;;;;;14.55;2.60;;;;;;;14.05;59.81;99944.66;5176266;28;20375;-49
2022/09/26 07:22:43;;;;;;;8.20;3.53;;;;;;;14.04;59.81;99933.22;5188151;28;20479;-49
2022/09/26 07:25:17;;;;;;;17.23;5.65;;;;;;;14.03;60.04;99936.88;5186108;28;20556;-51
2022/09/26 07:27:51;;;;;;;14.40;3.13;;;;;;;14.04;59.99;99927.91;5178256;28;20504;-48
2022/09/26 07:30:24;;;;;;;15.65;3.92;;;;;;;13.97;60.00;99921.75;5173539;28;20417;-49
2022/09/26 07:32:59;;;;;;;10.13;3.20;;;;;;;14.02;60.00;99924.59;5180172;28;20045;-47
2022/09/26 07:35:36;;;;;;;9.40;3.30;;;;;;;14.01;60.10;99916.84;5181805;28;20131;-51
2022/09/26 07:38:08;;;;;;;10.18;3.50;;;;;;;14.02;59.94;99918.47;5177569;28;20844;-46
2022/09/26 07:40:41;;;;;;;8.55;3.22;;;;;;;14.02;60.12;99915.81;5178884;28;20583;-49
2022/09/26 07:43:13;;;;;;;;;;;;;;;14.00;60.20;99909.91;5176751;28;20429;-51
2022/09/26 07:51:27;;;;;;;8.88;3.85;;;;;;;13.97;60.24;99889.06;5172276;28;20806;-48
2022/09/26 07:53:59;;;;;;;6.63;3.58;;;;;;;14.00;60.34;99894.81;5164790;28;20068;-50
2022/09/26 07:56:32;;;;;;;13.75;3.65;;;;;;;14.06;60.37;99891.38;5152671;28;20352;-48
2022/09/26 07:59:05;;;;;;;10.68;5.10;;;;;;;14.08;60.35;99897.28;5151534;28;20056;-51
2022/09/26 08:01:37;;;;;;;10.23;3.60;;;;;;;14.08;60.46;99896.47;5153599;28;20075;-47
2022/09/26 08:04:12;;;;;;;8.90;4.30;;;;;;;14.07;60.44;99887.69;5160409;28;20033;-49
2022/09/26 08:06:45;;;;;;;6.97;3.95;;;;;;;14.08;60.49;99883.19;5157696;28;20406;-48
2022/09/26 08:09:18;;;;;;;12.43;4.18;;;;;;;14.06;60.55;99883.41;5158301;28;20049;-51
2022/09/26 08:11:50;;;;;;;11.93;5.63;;;;;;;14.08;60.54;99886.66;5153177;28;20485;-47
2022/09/26 08:14:22;;;;;;;14.38;5.80;;;;;;;14.06;60.55;99874.63;5156601;28;20473;-46
2022/09/26 08:16:55;;;;;;;8.90;5.53;;;;;;;14.11;60.57;99876.69;5157928;28;20056;-51
2022/09/26 08:19:28;;;;;;;15.43;5.13;;;;;;;14.12;60.57;99871.19;5149269;28;20327;-47
2022/09/26 08:22:01;;;;;;;13.43;4.10;;;;;;;14.12;60.96;99865.88;5150763;28;20045;-54
2022/09/26 08:24:34;;;;;;;9.25;4.50;;;;;;;14.12;60.93;99860.56;5157725;28;20625;-49
2022/09/26 08:27:08;;;;;;;7.57;4.22;;;;;;;13.99;60.94;99853.31;5156269;28;20048;-48
2022/09/26 08:29:41;;;;;;;9.10;4.07;;;;;;;14.08;60.93;99860.09;5158526;28;20037;-51
2022/09/26 08:32:13;;;;;;;9.02;4.00;;;;;;;13.86;61.09;99821.41;5159989;28;20041;-51
2022/09/26 08:34:46;;;;;;;14.27;4.28;;;;;;;14.00;60.99;99848.84;5171945;28;20144;-48
2022/09/26 08:37:20;;;;;;;;;;;;;;;14.00;61.05;99851.50;5170033;28;20472;-49
2022/09/26 08:39:53;;;;;;;13.35;5.75;;;;;;;13.81;61.20;99843.25;5171481;28;20372;-51
2022/09/26 08:42:42;;;;;;;7.45;4.00;;;;;;;13.94;61.48;99844.34;5162626;28;20749;-50
2022/09/26 08:48:49;;;;;;;14.80;4.80;;;;;;;14.02;61.62;99837.00;5167664;28;20142;-47
2022/09/26 08:51:32;;;;;;;10.77;4.28;;;;;;;14.17;62.23;99830.75;5165582;28;20515;-51
2022/09/26 08:54:13;;;;;;;11.98;5.05;;;;;;;14.31;62.03;99832.44;5170261;28;20041;-48
2022/09/26 08:56:49;;;;;;;8.38;4.15;;;;;;;14.40;61.79;99815.31;5171649;28;20452;-51
2022/09/26 08:59:28;;;;;;;8.77;4.32;;;;;;;14.50;61.87;99814.94;5161781;28;20343;-52
2022/09/26 09:02:10;;;;;;;8.07;4.28;;;;;;;14.52;61.60;99813.75;5160293;28;20720;-53
2022/09/26 09:04:49;;;;;;;9.10;5.63;;;;;;;14.52;61.60;99811.09;5171708;28;20747;-50
2022/09/26 09:07:24;;;;;;;13.15;4.57;;;;;;;14.52;62.12;99823.53;5162686;28;20442;-52
2022/09/26 09:10:03;;;;;;;11.77;4.57;;;;;;;14.48;62.22;99795.72;5167687;28;20067;-49
2022/09/26 09:12:51;;;;;;;9.32;4.70;;;;;;;14.54;62.34;99802.91;5153243;28;20191;-53
2022/09/26 09:15:39;;;;;;;9.30;4.57;;;;;;;14.61;62.15;99785.13;5150031;28;20400;-45
2022/09/26 09:18:26;;;;;;;8.05;4.60;;;;;;;14.64;61.94;99790.03;5149979;28;20373;-50
2022/09/26 09:21:08;;;;;;;5.43;4.72;;;;;;;14.65;62.07;99791.69;5149405;28;20513;-51
2022/09/26 09:23:58;;;;;;;9.43;5.35;;;;;;;14.61;61.83;99795.75;5158522;28;20354;-49
2022/09/26 09:26:41;;;;;;;12.80;5.50;;;;;;;14.60;61.68;99798.63;5158612;28;20468;-49
2022/09/26 09:29:48;;;;;;;8.90;4.18;;;;;;;14.60;61.97;99799.44;5152969;28;20038;-48
2022/09/26 09:32:30;;;;;;;6.53;4.20;;;;;;;14.55;62.12;99812.50;5149932;28;20044;-48
2022/09/26 09:35:03;;;;;;;9.00;5.28;;;;;;;14.53;62.26;99814.56;5150073;28;20546;-49
2022/09/26 09:37:43;;;;;;;11.13;5.20;;;;;;;14.52;62.11;99812.91;5154456;28;20049;-49
2022/09/26 09:40:27;;;;;;;5.90;4.30;;;;;;;14.50;62.22;99804.31;5163601;28;20048;-50
2022/09/26 09:43:04;;;;;;;11.68;5.35;;;;;;;14.48;62.12;99806.34;5155415;28;20043;-49
2022/09/26 09:45:43;;;;;;;10.70;4.78;;;;;;;14.49;62.28;99805.31;5165354;28;20041;-47
2022/09/26 09:48:16;;;;;;;9.60;4.85;;;;;;;14.45;62.29;99806.75;5164632;28;20052;-51
2022/09/26 09:51:13;;;;;;;8.35;5.35;;;;;;;14.42;63.07;99796.50;5166231;28;20438;-52
2022/09/26 09:54:09;;;;;;;7.78;4.13;;;;;;;14.37;62.77;99793.63;5146904;28;20486;-44
2022/09/26 09:56:50;;;;;;;9.18;4.70;;;;;;;14.37;62.89;99796.28;5160274;28;20063;-53
2022/09/26 09:59:55;;;;;;;7.22;5.50;;;;;;;14.35;63.11;99806.31;5169083;28;20052;-47
2022/09/26 10:02:36;;;;;;;14.65;5.70;;;;;;;14.33;63.13;99800.38;5151397;28;20045;-51
2022/09/26 10:05:33;;;;;;;8.05;6.35;;;;;;;14.33;63.45;99793.22;5155171;28;20124;-50
2022/09/26 10:08:13;;;;;;;9.80;5.55;;;;;;;14.35;63.34;99793.03;5151775;28;20557;-48
2022/09/26 10:11:15;;;;;;;9.43;5.60;;;;;;;14.35;63.15;99779.75;5160469;28;20373;-47
2022/09/26 10:13:52;;;;;;;10.00;6.55;;;;;;;14.41;63.36;99794.88;5157855;28;20133;-47
2022/09/26 10:16:26;;;;;;;13.32;6.10;;;;;;;14.41;63.08;99778.94;5172017;28;20413;-51
2022/09/26 10:19:06;;;;;;;10.32;6.15;;;;;;;14.40;63.04;99787.91;5169067;28;20048;-47
2022/09/26 10:21:42;;;;;;;6.10;5.28;;;;;;;14.17;63.10;99738.63;5174759;28;20049;-51
2022/09/26 10:24:53;;;;;;;6.07;4.60;;;;;;;14.47;63.58;99776.31;5172397;28;20050;-52
2022/09/26 10:27:34;;;;;;;5.38;4.50;;;;;;;14.49;63.12;99765.47;5157236;28;20343;-48
2022/09/26 10:30:24;;;;;;;9.13;5.10;;;;;;;14.50;63.08;99761.81;5154618;28;20115;-51
2022/09/26 10:33:00;;;;;;;4.97;4.57;;;;;;;14.59;62.83;99749.19;5153220;28;20481;-46
2022/09/26 10:35:42;;;;;;;6.20;4.07;;;;;;;14.62;62.89;99743.47;5156923;28;20487;-48
2022/09/26 10:38:26;;;;;;;6.57;4.17;;;;;;;14.67;62.73;99741.81;5161454;28;20459;-48
2022/09/26 10:41:00;;;;;;;5.95;3.65;;;;;;;14.72;62.80;99749.19;5165698;28;20288;-47
2022/09/26 10:43:34;;;;;;;7.82;4.25;;;;;;;14.81;62.86;99747.16;5154584;28;20447;-47
2022/09/26 10:46:10;;;;;;;4.95;3.78;;;;;;;14.90;62.63;99740.63;5166287;28;20087;-51
2022/09/26 10:48:50;;;;;;;8.13;3.85;;;;;;;15.02;62.87;99741.63;5153498;28;20150;-52
2022/09/26 10:51:29;;;;;;;4.32;3.63;;;;;;;15.21;62.64;99748.75;5155940;28;20052;-53
2022/09/26 10:54:06;;;;;;;5.53;3.78;;;;;;;15.01;62.31;99676.16;5155620;28;20107;-52
2022/09/26 10:56:44;;;;;;;5.25;3.80;;;;;;;15.70;62.39;99737.81;5153633;28;20052;-49
2022/09/26 10:59:19;;;;;;;5.15;3.45;;;;;;;15.98;61.99;99738.34;5151622;28;20127;-50
2022/09/26 11:01:57;;;;;;;8.35;3.00;;;;;;;16.19;61.63;99739.03;5151454;28;20362;-48
2022/09/26 11:07:34;;;;;;;4.78;3.95;;;;;;;16.29;61.58;99734.06;5153373;28;20480;-50
2022/09/26 11:10:12;;;;;;;7.35;3.72;;;;;;;16.31;61.69;99737.34;5151667;28;20052;-48
2022/09/26 11:13:01;;;;;;;7.22;3.08;;;;;;;16.36;61.56;99729.53;5153882;28;20049;-49
2022/09/26 11:15:33;;;;;;;10.98;4.25;;;;;;;16.19;61.42;99709.75;5161846;28;20122;-51
2022/09/26 11:18:06;;;;;;;7.00;4.10;;;;;;;16.47;61.37;99742.16;5159028;28;20045;-46
2022/09/26 11:20:49;;;;;;;7.93;3.50;;;;;;;16.59;61.42;99745.75;5167844;28;20041;-52
2022/09/26 11:23:34;;;;;;;8.90;3.00;;;;;;;16.69;61.27;99744.47;5169388;28;20405;-48
2022/09/26 11:26:17;;;;;;;8.10;2.60;;;;;;;16.82;61.18;99744.41;5165935;28;20355;-46
2022/09/26 11:28:53;;;;;;;;;;;;;;;16.96;61.24;99740.59;5174594;28;20576;-50
2022/09/26 11:31:29;;;;;;;15.00;3.83;;;;;;;17.07;61.03;99736.41;5173207;28;19921;-49
2022/09/26 11:34:04;;;;;;;9.45;3.30;;;;;;;17.08;60.94;99737.22;5164564;28;20063;-49
2022/09/26 11:37:29;;;;;;;4.07;2.58;;;;;;;17.02;60.89;99731.72;5165033;28;20045;-49
2022/09/26 11:40:19;;;;;;;5.63;2.53;;;;;;;16.97;60.93;99747.56;5153696;28;20476;-47
2022/09/26 11:43:12;;;;;;;6.50;2.53;;;;;;;16.92;61.19;99731.41;5165893;28;20444;-48
2022/09/26 11:46:13;;;;;;;3.08;2.42;;;;;;;16.98;61.02;99727.84;5172744;28;20110;-47
2022/09/26 11:49:04;;;;;;;12.13;3.25;;;;;;;17.10;60.79;99719.16;5172603;28;20148;-49
2022/09/26 11:51:59;;;;;;;10.93;3.42;;;;;;;17.29;60.74;99728.81;5159654;28;20146;-48
2022/09/26 11:54:50;;;;;;;5.25;3.20;;;;;;;17.42;60.71;99717.97;5167620;28;20041;-51
2022/09/26 11:57:37;;;;;;;5.75;2.65;;;;;;;17.29;60.28;99697.59;5173192;28;20048;-49
2022/09/26 12:00:23;;;;;;;21.55;4.15;;;;;;;17.47;60.40;99720.81;5173056;28;20357;-51
2022/09/26 12:03:29;;;;;;;6.07;2.72;;;;;;;17.48;60.50;99724.28;5170629;28;20393;-48
2022/09/26 12:06:11;;;;;;;8.05;3.28;;;;;;;17.42;60.47;99706.50;5169023;28;20048;-51
2022/09/26 12:09:07;;;;;;;4.95;2.97;;;;;;;17.60;60.40;99719.03;5171696;28;20075;-53
2022/09/26 12:11:49;;;;;;;12.02;3.00;;;;;;;17.72;60.06;99717.25;5171643;28;20048;-48
2022/09/26 12:14:44;;;;;;;10.05;4.30;;;;;;;17.80;60.17;99719.63;5171873;28;20389;-48
2022/09/26 12:17:33;;;;;;;31.17;4.47;;;;;;;17.80;60.08;99716.97;5165376;28;27555;-48
2022/09/26 12:20:22;;;;;;;11.13;3.53;;;;;;;17.85;60.20;99714.44;5163499;28;20088;-47
2022/09/26 12:23:03;;;;;;;8.73;2.70;;;;;;;17.78;60.25;99687.00;5162247;28;20345;-47
2022/09/26 12:26:04;;;;;;;14.07;3.03;;;;;;;17.95;60.00;99703.22;5164687;28;20422;-47
2022/09/26 12:29:27;;;;;;;14.95;4.93;;;;;;;17.98;60.16;99711.59;5170067;28;20596;-46
2022/09/26 12:32:23;;;;;;;14.18;4.35;;;;;;;17.98;60.18;99698.22;5158114;28;20413;-46
2022/09/26 12:35:26;;;;;;;17.52;3.70;;;;;;;17.86;60.19;99684.00;5153966;28;20049;-46
2022/09/26 12:38:31;;;;;;;17.63;4.53;;;;;;;17.87;60.30;99693.66;5148096;28;20581;-47
2022/09/26 12:41:23;;;;;;;20.38;4.45;;;;;;;17.74;60.05;99691.97;5155275;28;20045;-49
2022/09/26 12:44:27;;;;;;;15.80;5.25;;;;;;;17.73;60.18;99684.16;5158647;28;20493;-50
2022/09/26 12:47:17;;;;;;;14.57;3.08;;;;;;;17.71;59.94;99691.56;5152732;28;20798;-47
2022/09/26 12:50:07;;;;;;;19.85;4.65;;;;;;;17.69;59.80;99693.66;5155761;28;20041;-48
2022/09/26 12:53:42;;;;;;;13.30;4.80;;;;;;;17.62;59.78;99696.41;5153791;28;20042;-50